Time;durP1;ratioP1;P1;durP2;ratioP2;P2;SDS_P1;SDS_P2;PMS_P1;PMS_P2;Temp;Humidity;BMP_temperature;BMP_pressure;BME280_temperature;BME280_humidity;BME280_pressure;Samples;Min_cycle;Max_cycle;Signal;HPM_P1;HPM_P2
2023/07/04 00:01:19;;;;;;;3.80;1.85;;;;;;;16.71;100.00;100537.63;4966482;28;20209;-80
2023/07/04 00:03:50;;;;;;;5.45;2.92;;;;;;;16.73;100.00;100540.25;4970162;28;20225;-80
2023/07/04 00:06:17;;;;;;;9.02;3.15;;;;;;;16.68;100.00;100536.78;4939955;28;20236;-79
2023/07/04 00:08:45;;;;;;;3.30;1.95;;;;;;;16.67;100.00;100541.22;4964383;28;20240;-80
2023/07/04 00:11:12;;;;;;;2.92;1.65;;;;;;;16.70;100.00;100546.53;4985051;28;20215;-83
2023/07/04 00:13:39;;;;;;;2.63;1.67;;;;;;;16.71;100.00;100545.63;4970065;28;20240;-80
2023/07/04 00:16:11;;;;;;;4.25;2.00;;;;;;;16.58;100.00;100542.22;4964786;28;20232;-80
2023/07/04 00:18:38;;;;;;;4.80;2.20;;;;;;;16.50;100.00;100544.09;4959548;28;20257;-80
2023/07/04 00:21:11;;;;;;;3.63;2.00;;;;;;;16.47;100.00;100556.59;4959062;28;20713;-80
2023/07/04 00:23:38;;;;;;;3.75;1.98;;;;;;;16.38;100.00;100557.59;4954749;28;20251;-80
2023/07/04 00:26:07;;;;;;;1.70;1.20;;;;;;;16.29;100.00;100563.94;4956810;28;20353;-82
2023/07/04 00:28:38;;;;;;;2.25;1.45;;;;;;;16.32;100.00;100568.38;4952614;28;20243;-80
2023/07/04 00:31:06;;;;;;;2.28;1.60;;;;;;;16.24;100.00;100567.56;4960433;28;20236;-80
2023/07/04 00:33:33;;;;;;;2.03;1.42;;;;;;;16.19;100.00;100583.63;4952370;28;20240;-80
2023/07/04 00:36:05;;;;;;;3.17;2.08;;;;;;;16.20;100.00;100584.53;4970385;28;20228;-80
2023/07/04 00:38:33;;;;;;;2.03;1.42;;;;;;;16.12;100.00;100594.41;4969400;28;20240;-79
2023/07/04 00:41:06;;;;;;;2.90;1.70;;;;;;;16.03;100.00;100592.72;4944480;28;20236;-80
2023/07/04 00:43:57;;;;;;;3.25;1.70;;;;;;;15.98;100.00;100592.75;4950750;28;20237;-80
2023/07/04 00:46:51;;;;;;;17.25;5.03;;;;;;;15.93;100.00;100589.25;4953556;28;20665;-80
2023/07/04 00:49:42;;;;;;;4.78;2.15;;;;;;;15.88;100.00;100592.88;4953803;28;20231;-80
2023/07/04 00:52:23;;;;;;;2.50;2.00;;;;;;;15.75;100.00;100592.13;4971475;28;20228;-80
2023/07/04 00:54:57;;;;;;;2.45;1.50;;;;;;;15.78;100.00;100593.88;4962457;28;20236;-80
2023/07/04 00:57:31;;;;;;;4.75;2.17;;;;;;;15.77;100.00;100597.44;4965690;28;20235;-80
2023/07/04 01:00:13;;;;;;;1.15;1.00;;;;;;;15.74;100.00;100602.78;4989006;28;20291;-80
2023/07/04 01:02:40;;;;;;;1.13;0.93;;;;;;;15.75;100.00;100604.56;4993613;28;20236;-80
2023/07/04 01:05:07;;;;;;;0.77;0.70;;;;;;;15.70;100.00;100599.28;4991326;28;20212;-80
2023/07/04 01:07:53;;;;;;;0.98;0.88;;;;;;;15.72;100.00;100609.91;4957904;28;20238;-79
2023/07/04 01:10:32;;;;;;;2.67;1.58;;;;;;;15.72;100.00;100617.91;4987350;28;20231;-80
2023/07/04 01:13:00;;;;;;;0.60;0.60;;;;;;;15.71;100.00;100611.69;4983639;28;20338;-80
2023/07/04 01:15:30;;;;;;;2.25;1.13;;;;;;;15.65;100.00;100617.97;4979427;28;22837;-80
2023/07/04 01:17:59;;;;;;;0.47;0.47;;;;;;;15.64;100.00;100626.00;4989484;28;20247;-80
2023/07/04 01:20:27;;;;;;;10.65;3.83;;;;;;;15.62;100.00;100623.34;4979887;28;20318;-80
2023/07/04 01:23:09;;;;;;;0.50;0.50;;;;;;;15.54;100.00;100633.09;4980330;28;20242;-80
2023/07/04 01:26:04;;;;;;;0.30;0.30;;;;;;;15.50;100.00;100642.03;4985527;28;20660;-80
2023/07/04 01:28:31;;;;;;;0.50;0.50;;;;;;;15.53;100.00;100644.66;4980017;28;20606;-81
2023/07/04 01:30:57;;;;;;;0.35;0.35;;;;;;;15.55;100.00;100656.19;4972911;28;20232;-80
2023/07/04 01:33:24;;;;;;;3.95;1.80;;;;;;;15.57;100.00;100657.09;4984138;28;20228;-80
2023/07/04 01:35:51;;;;;;;0.40;0.40;;;;;;;15.54;100.00;100665.09;4964089;28;20232;-80
2023/07/04 01:38:19;;;;;;;0.45;0.45;;;;;;;15.52;100.00;100666.00;4977066;28;20252;-79
2023/07/04 01:43:22;;;;;;;0.75;0.70;;;;;;;15.50;100.00;100679.34;4997548;23;20235;-79
2023/07/04 01:45:48;;;;;;;0.30;0.30;;;;;;;15.49;100.00;100676.69;4967926;28;20220;-80
2023/07/04 01:48:15;;;;;;;0.65;0.65;;;;;;;15.45;100.00;100681.16;4977050;28;20221;-79
2023/07/04 01:50:42;;;;;;;0.38;0.38;;;;;;;15.45;100.00;100682.94;4976790;28;20228;-79
2023/07/04 01:53:09;;;;;;;0.30;0.30;;;;;;;15.38;100.00;100685.63;4979617;28;20307;-79
2023/07/04 01:55:35;;;;;;;0.30;0.30;;;;;;;15.42;100.00;100696.28;4983539;28;20589;-80
2023/07/04 01:58:02;;;;;;;0.32;0.32;;;;;;;15.39;100.00;100699.84;4980521;28;20310;-80
2023/07/04 02:00:30;;;;;;;0.30;0.30;;;;;;;15.35;100.00;100706.97;4978034;28;20232;-79
2023/07/04 02:02:57;;;;;;;0.35;0.35;;;;;;;15.26;100.00;100704.38;4983450;28;20233;-80
2023/07/04 02:05:24;;;;;;;0.57;0.55;;;;;;;15.29;100.00;100717.69;4971280;28;20225;-80
2023/07/04 02:07:51;;;;;;;0.40;0.40;;;;;;;15.30;100.00;100718.56;4976302;28;20232;-80
2023/07/04 02:10:18;;;;;;;0.85;0.68;;;;;;;15.23;100.00;100722.16;4973089;28;20665;-78
2023/07/04 02:12:45;;;;;;;0.40;0.40;;;;;;;15.15;100.00;100721.31;4980348;28;20236;-78
2023/07/04 02:15:12;;;;;;;0.52;0.52;;;;;;;15.14;100.00;100717.75;4975124;28;20311;-78
2023/07/04 02:17:40;;;;;;;0.30;0.30;;;;;;;15.14;100.00;100725.75;4972611;28;20236;-78
2023/07/04 02:20:07;;;;;;;1.27;0.93;;;;;;;15.05;100.00;100726.69;4976304;28;20223;-78
2023/07/04 02:22:34;;;;;;;0.30;0.30;;;;;;;14.98;100.00;100724.94;4971517;28;20264;-78
2023/07/04 02:25:02;;;;;;;0.52;0.52;;;;;;;15.15;100.00;100732.84;4983278;28;20293;-78
2023/07/04 02:27:29;;;;;;;0.40;0.40;;;;;;;15.17;100.00;100741.72;4965396;28;20241;-78
2023/07/04 02:29:56;;;;;;;0.40;0.40;;;;;;;15.15;100.00;100748.84;4982445;28;20233;-80
2023/07/04 02:32:23;;;;;;;1.98;1.15;;;;;;;15.08;100.00;100746.19;4977650;28;20319;-78
2023/07/04 02:34:49;;;;;;;0.25;0.25;;;;;;;15.05;100.00;100753.31;4978534;28;20315;-78
2023/07/04 02:37:16;;;;;;;6.03;2.88;;;;;;;15.10;100.00;100763.94;4969942;28;20228;-78
2023/07/04 02:39:43;;;;;;;0.20;0.20;;;;;;;15.23;100.00;100768.34;4965593;28;20231;-80
2023/07/04 02:42:09;;;;;;;0.40;0.38;;;;;;;15.23;100.00;100764.78;4960165;28;20228;-79
2023/07/04 02:44:36;;;;;;;0.20;0.20;;;;;;;15.19;100.00;100763.91;4959151;28;20229;-78
2023/07/04 02:47:03;;;;;;;0.30;0.30;;;;;;;15.14;100.00;100770.16;4958560;28;20225;-78
2023/07/04 02:49:30;;;;;;;1.15;1.15;;;;;;;15.16;100.00;100773.69;4951617;28;20233;-78
2023/07/04 02:51:57;;;;;;;0.30;0.30;;;;;;;15.11;100.00;100775.50;4962306;28;20238;-78
2023/07/04 02:54:24;;;;;;;5.55;2.90;;;;;;;15.19;100.00;100776.34;4955305;28;20231;-78
2023/07/04 02:56:50;;;;;;;0.22;0.22;;;;;;;15.24;100.00;100769.22;4959747;28;20240;-78
2023/07/04 02:59:17;;;;;;;2.03;1.17;;;;;;;15.36;100.00;100771.81;4958122;28;20225;-79
2023/07/04 03:01:44;;;;;;;0.30;0.30;;;;;;;15.34;100.00;100778.94;4965240;28;20228;-78
2023/07/04 03:04:11;;;;;;;0.20;0.20;;;;;;;15.23;100.00;100770.09;4971839;28;20249;-79
2023/07/04 03:06:38;;;;;;;0.20;0.20;;;;;;;15.21;100.00;100769.22;4972022;28;20209;-79
2023/07/04 03:09:05;;;;;;;0.30;0.30;;;;;;;15.36;100.00;100779.81;4971033;28;20221;-79
2023/07/04 03:11:32;;;;;;;0.43;0.43;;;;;;;15.25;100.00;100769.22;4964970;28;20252;-78
2023/07/04 03:13:58;;;;;;;0.50;0.50;;;;;;;15.26;100.00;100772.75;4965261;28;20237;-79
2023/07/04 03:16:25;;;;;;;2.47;1.10;;;;;;;15.26;100.00;100775.44;4952283;28;20232;-79
2023/07/04 03:18:52;;;;;;;0.30;0.30;;;;;;;15.18;100.00;100763.91;4956297;28;20237;-79
2023/07/04 03:21:20;;;;;;;1.75;0.93;;;;;;;15.14;100.00;100763.03;4949245;28;20229;-79
2023/07/04 03:23:47;;;;;;;0.20;0.20;;;;;;;15.20;100.00;100767.47;4959193;28;20239;-78
2023/07/04 03:26:14;;;;;;;2.45;1.10;;;;;;;15.32;100.00;100775.41;4955208;28;20244;-79
2023/07/04 03:28:41;;;;;;;0.20;0.20;;;;;;;15.34;100.00;100766.50;4960986;28;20225;-79
2023/07/04 03:31:07;;;;;;;0.30;0.30;;;;;;;15.29;100.00;100770.97;4957439;28;20242;-79
2023/07/04 03:33:34;;;;;;;0.25;0.25;;;;;;;15.42;100.00;100769.13;4952571;28;20292;-79
2023/07/04 03:36:01;;;;;;;0.30;0.30;;;;;;;15.42;100.00;100766.47;4958470;28;20240;-79
2023/07/04 03:38:28;;;;;;;1.45;0.85;;;;;;;15.35;100.00;100759.38;4953323;28;20384;-79
2023/07/04 03:40:55;;;;;;;0.30;0.30;;;;;;;15.32;100.00;100759.41;4965299;28;20225;-78
2023/07/04 03:43:22;;;;;;;6.50;3.13;;;;;;;15.28;100.00;100750.53;4944116;28;20232;-79
2023/07/04 03:45:49;;;;;;;0.30;0.30;;;;;;;15.23;100.00;100749.69;4964743;28;20256;-80
2023/07/04 03:48:16;;;;;;;6.32;2.88;;;;;;;15.18;100.00;100750.59;4953811;28;20224;-80
2023/07/04 03:50:43;;;;;;;0.22;0.22;;;;;;;15.16;100.00;100752.38;4960408;28;20228;-80
2023/07/04 03:53:10;;;;;;;1.35;0.85;;;;;;;15.11;100.00;100755.06;4953230;28;20256;-80
2023/07/04 03:55:37;;;;;;;0.30;0.30;;;;;;;14.96;100.00;100745.38;4962693;28;20240;-80
2023/07/04 03:58:03;;;;;;;0.20;0.20;;;;;;;15.03;100.00;100755.09;4953603;28;20639;-80
2023/07/04 04:00:31;;;;;;;1.25;0.80;;;;;;;15.05;100.00;100757.75;4948224;28;20623;-81
2023/07/04 04:02:57;;;;;;;0.32;0.32;;;;;;;15.09;100.00;100758.63;4957187;28;20240;-82
2023/07/04 04:05:25;;;;;;;2.00;1.10;;;;;;;15.07;100.00;100768.41;4956772;28;20239;-79
2023/07/04 04:07:52;;;;;;;0.10;0.10;;;;;;;15.04;100.00;100770.19;4958575;28;20992;-79
2023/07/04 04:10:19;;;;;;;4.55;2.65;;;;;;;15.00;100.00;100770.22;4954294;28;20232;-79
2023/07/04 04:12:46;;;;;;;0.20;0.20;;;;;;;14.91;100.00;100767.56;4952455;28;20229;-80
2023/07/04 04:15:13;;;;;;;2.22;1.63;;;;;;;15.03;100.00;100778.19;4950188;28;20248;-79
2023/07/04 04:17:40;;;;;;;0.20;0.20;;;;;;;14.96;100.00;100781.75;4961871;28;20231;-79
2023/07/04 04:20:07;;;;;;;0.40;0.40;;;;;;;15.03;100.00;100783.50;4966278;28;20201;-80
2023/07/04 04:22:39;;;;;;;0.35;0.35;;;;;;;15.06;100.00;100796.81;4954170;28;20315;-81
2023/07/04 04:25:07;;;;;;;0.10;0.10;;;;;;;15.10;100.00;100808.34;4961665;28;20229;-80
2023/07/04 04:27:35;;;;;;;0.20;0.20;;;;;;;15.12;100.00;100811.91;4953691;28;20365;-78
2023/07/04 04:30:08;;;;;;;1.65;0.50;;;;;;;15.09;100.00;100815.47;4955508;28;20694;-78
2023/07/04 04:32:36;;;;;;;0.10;0.10;;;;;;;15.10;100.00;100819.91;4950945;28;20241;-78
2023/07/04 04:35:04;;;;;;;0.40;0.40;;;;;;;15.12;100.00;100831.44;4959064;28;20252;-78
2023/07/04 04:37:31;;;;;;;0.20;0.20;;;;;;;15.17;100.00;100839.41;4951667;28;20321;-80
2023/07/04 04:39:59;;;;;;;0.10;0.10;;;;;;;15.20;100.00;100844.72;4959718;28;20229;-81
2023/07/04 04:42:27;;;;;;;0.70;0.55;;;;;;;15.24;100.00;100849.16;4959127;28;20227;-82
2023/07/04 04:44:54;;;;;;;0.20;0.20;;;;;;;15.32;100.00;100864.22;4934288;28;20241;-84
2023/07/04 04:47:24;;;;;;;0.65;0.50;;;;;;;15.32;100.00;100872.22;4948132;28;20244;-86
2023/07/04 04:49:51;;;;;;;0.20;0.20;;;;;;;15.42;100.00;100886.41;4957683;28;20241;-84
2023/07/04 04:52:20;;;;;;;5.55;3.38;;;;;;;15.48;100.00;100888.16;4952952;28;20253;-83
2023/07/04 04:54:47;;;;;;;2.45;1.98;;;;;;;15.53;100.00;100887.25;4954120;28;20248;-84
2023/07/04 04:57:15;;;;;;;3.40;2.55;;;;;;;15.59;100.00;100897.91;4951413;28;20576;-89
2023/07/04 04:59:42;;;;;;;0.20;0.20;;;;;;;15.64;100.00;100909.47;4959073;28;20316;-83
2023/07/04 05:02:09;;;;;;;0.30;0.30;;;;;;;15.72;100.00;100912.09;4951771;28;20229;-84
2023/07/04 05:04:36;;;;;;;0.10;0.10;;;;;;;15.76;100.00;100908.53;4962828;28;20728;-83
2023/07/04 05:07:03;;;;;;;0.30;0.30;;;;;;;15.86;100.00;100914.72;4963063;28;20233;-88
2023/07/04 05:09:31;;;;;;;0.20;0.20;;;;;;;15.98;100.00;100911.97;4951709;28;20237;-81
2023/07/04 05:11:58;;;;;;;0.30;0.30;;;;;;;15.98;100.00;100910.19;4959115;28;20260;-80
2023/07/04 05:14:24;;;;;;;0.75;0.47;;;;;;;16.07;100.00;100909.25;4959983;28;20244;-81
2023/07/04 05:16:51;;;;;;;0.17;0.17;;;;;;;16.20;100.00;100912.75;4966225;28;20233;-79
2023/07/04 05:19:18;;;;;;;1.55;0.90;;;;;;;16.29;100.00;100907.34;4960228;28;20251;-80
2023/07/04 05:21:48;;;;;;;0.50;0.50;;;;;;;16.35;100.00;100901.97;4961488;28;20224;-80
2023/07/04 05:24:15;;;;;;;0.45;0.40;;;;;;;16.36;100.00;100893.06;4954476;28;20253;-77
2023/07/04 05:26:42;;;;;;;0.20;0.20;;;;;;;16.54;100.00;100900.03;4954624;28;20236;-78
2023/07/04 05:29:08;;;;;;;0.43;0.43;;;;;;;16.60;100.00;100894.66;4954463;28;20236;-78
2023/07/04 05:31:35;;;;;;;0.20;0.20;;;;;;;16.63;100.00;100883.94;4959746;28;20233;-78
2023/07/04 05:34:02;;;;;;;0.30;0.30;;;;;;;16.69;100.00;100872.34;4957739;28;20237;-78
2023/07/04 05:36:30;;;;;;;0.10;0.10;;;;;;;16.88;100.00;100834.75;4951540;28;22623;-79
2023/07/04 05:38:59;;;;;;;0.20;0.20;;;;;;;17.00;100.00;100827.56;4961711;28;20319;-78
2023/07/04 05:41:29;;;;;;;0.57;0.57;;;;;;;17.04;100.00;100818.59;4954601;28;20253;-78
2023/07/04 05:43:57;;;;;;;0.10;0.10;;;;;;;17.08;100.00;100799.84;4960326;28;20252;-78
2023/07/04 05:46:24;;;;;;;0.38;0.38;;;;;;;17.17;100.00;100786.38;4955545;28;20236;-76
2023/07/04 05:48:52;;;;;;;0.20;0.20;;;;;;;17.16;100.00;100754.31;4951398;28;20233;-77
2023/07/04 05:51:19;;;;;;;0.30;0.30;;;;;;;17.28;100.00;100752.38;4956180;28;20236;-77
2023/07/04 05:53:48;;;;;;;0.20;0.20;;;;;;;17.36;100.00;100741.56;4962008;28;20236;-77
2023/07/04 05:56:24;;;;;;;1.67;1.58;;;;;;;17.55;100.00;100737.72;4953688;28;20225;-76
2023/07/04 05:58:56;;;;;;;0.10;0.10;;;;;;;17.55;100.00;100716.34;4962384;28;20243;-76
2023/07/04 06:01:38;;;;;;;0.20;0.20;;;;;;;17.60;100.00;100703.78;4959267;28;20228;-76
2023/07/04 06:04:07;;;;;;;0.20;0.20;;;;;;;17.74;100.00;100686.66;4963125;28;20244;-80
2023/07/04 06:06:49;;;;;;;0.45;0.45;;;;;;;17.86;100.00;100659.69;4955015;28;20233;-76
2023/07/04 06:09:16;;;;;;;1.23;0.70;;;;;;;17.93;100.00;100642.63;4948950;28;20232;-76
2023/07/04 06:11:45;;;;;;;0.17;0.17;;;;;;;17.93;100.00;100610.53;4958688;28;20243;-76
2023/07/04 06:14:23;;;;;;;0.28;0.28;;;;;;;18.06;100.00;100605.81;4957654;28;20237;-76
2023/07/04 06:16:50;;;;;;;0.10;0.10;;;;;;;18.15;100.00;100598.50;4963594;28;20235;-76
2023/07/04 06:19:19;;;;;;;0.35;0.30;;;;;;;18.22;100.00;100580.56;4959764;28;20252;-77
2023/07/04 06:21:46;;;;;;;0.38;0.38;;;;;;;18.36;100.00;100564.22;4959403;28;20244;-77
2023/07/04 06:24:14;;;;;;;0.43;0.43;;;;;;;18.51;100.00;100561.22;4956262;28;20244;-78
2023/07/04 06:26:41;;;;;;;0.10;0.10;;;;;;;18.54;100.00;100545.06;4961552;28;20237;-78
2023/07/04 06:29:08;;;;;;;0.13;0.13;;;;;;;18.40;100.00;100513.25;4956015;28;20229;-81
2023/07/04 06:31:36;;;;;;;0.10;0.10;;;;;;;18.41;100.00;100490.91;4950177;28;20251;-80
2023/07/04 06:34:03;;;;;;;0.10;0.10;;;;;;;18.68;100.00;100505.50;4952635;28;20241;-79
2023/07/04 06:36:30;;;;;;;0.20;0.20;;;;;;;18.80;100.00;100499.84;4958947;28;20236;-79
2023/07/04 06:39:00;;;;;;;0.43;0.43;;;;;;;18.89;100.00;100465.72;4959775;28;20241;-80
2023/07/04 06:41:27;;;;;;;0.20;0.20;;;;;;;19.04;100.00;100487.66;4955436;28;20251;-80
2023/07/04 06:43:54;;;;;;;0.22;0.22;;;;;;;19.13;100.00;100474.03;4960858;28;20244;-81
2023/07/04 06:46:21;;;;;;;0.52;0.45;;;;;;;19.38;100.00;100484.13;4957720;28;20276;-79
2023/07/04 06:48:49;;;;;;;0.20;0.20;;;;;;;19.26;100.00;100412.03;4942652;28;20236;-80
2023/07/04 06:51:17;;;;;;;0.45;0.45;;;;;;;19.23;100.00;100391.56;4955435;28;20243;-78
2023/07/04 06:53:44;;;;;;;0.25;0.25;;;;;;;19.48;100.00;100407.84;4961724;28;20233;-78
2023/07/04 06:56:20;;;;;;;1.05;0.95;;;;;;;19.58;100.00;100376.34;4953086;28;20235;-78
2023/07/04 06:58:48;;;;;;;0.20;0.20;;;;;;;19.58;100.00;100336.13;4959740;28;20268;-79
2023/07/04 07:01:16;;;;;;;0.73;0.68;;;;;;;19.83;100.00;100347.00;4951301;28;20228;-78
2023/07/04 07:03:43;;;;;;;0.35;0.35;;;;;;;19.88;100.00;100313.72;4958285;28;20243;-82
2023/07/04 07:06:11;;;;;;;0.17;0.15;;;;;;;20.16;100.00;100310.16;4959627;28;20217;-80
2023/07/04 07:08:39;;;;;;;0.20;0.20;;;;;;;20.14;100.00;100232.34;4959966;28;20237;-81
2023/07/04 07:11:09;;;;;;;0.10;0.10;;;;;;;20.00;100.00;100173.75;4966395;28;20233;-82
2023/07/04 07:13:36;;;;;;;0.10;0.10;;;;;;;20.26;100.00;100158.56;4961799;28;20241;-83
2023/07/04 07:16:11;;;;;;;0.82;0.82;;;;;;;20.36;100.00;100111.66;4960893;28;20233;-82
2023/07/04 07:18:41;;;;;;;0.20;0.20;;;;;;;20.46;100.00;100134.59;4957033;28;20324;-83
2023/07/04 07:21:10;;;;;;;0.20;0.20;;;;;;;20.33;100.00;100080.41;4953266;28;20244;-83
2023/07/04 07:23:38;;;;;;;0.30;0.30;;;;;;;20.61;100.00;100093.72;4956943;28;20279;-83
2023/07/04 07:26:07;;;;;;;0.10;0.10;;;;;;;20.45;100.00;99996.72;4953694;28;20224;-81
2023/07/04 07:28:38;;;;;;;0.35;0.35;;;;;;;20.71;100.00;100016.34;4949271;28;20300;-81
2023/07/04 07:31:18;;;;;;;0.20;0.20;;;;;;;20.77;100.00;99956.97;4958599;28;20231;-82
2023/07/04 07:33:48;;;;;;;0.22;0.22;;;;;;;21.12;100.00;100020.09;4959329;28;20264;-83
2023/07/04 07:36:20;;;;;;;5.40;3.72;;;;;;;21.12;100.00;99901.78;4953135;28;20225;-82
2023/07/04 07:38:48;;;;;;;0.20;0.20;;;;;;;21.21;100.00;99900.50;4956942;28;20257;-82
2023/07/04 07:41:15;;;;;;;6.20;3.55;;;;;;;21.23;100.00;99861.88;4957213;28;20308;-82
2023/07/04 07:43:42;;;;;;;0.20;0.20;;;;;;;21.28;100.00;99857.19;4964727;28;20237;-82
2023/07/04 07:46:11;;;;;;;0.35;0.35;;;;;;;21.37;100.00;99827.19;4947442;28;20230;-81
2023/07/04 07:48:38;;;;;;;0.10;0.10;;;;;;;21.41;100.00;99782.19;4951310;28;20234;-82
2023/07/04 07:51:07;;;;;;;0.20;0.20;;;;;;;21.83;100.00;99833.16;4962722;28;20228;-80
2023/07/04 07:53:35;;;;;;;0.10;0.10;;;;;;;21.77;100.00;99776.94;4955514;28;20236;-83
2023/07/04 07:56:04;;;;;;;0.10;0.10;;;;;;;21.97;100.00;99776.84;4949108;28;20262;-85
2023/07/04 07:58:32;;;;;;;0.20;0.20;;;;;;;21.80;99.45;99671.81;4952553;28;20255;-82
2023/07/04 08:00:59;;;;;;;0.10;0.10;;;;;;;21.40;100.00;99635.22;4964063;28;20690;-84
2023/07/04 08:03:27;;;;;;;5.93;2.95;;;;;;;21.55;100.00;99660.50;4952890;28;20701;-83
2023/07/04 08:05:54;;;;;;;0.10;0.10;;;;;;;21.68;99.04;99599.75;4923246;28;20228;-86
2023/07/04 08:08:21;;;;;;;7.10;3.95;;;;;;;22.13;95.75;99614.59;4953801;28;20235;-84
2023/07/04 08:10:47;;;;;;;0.10;0.10;;;;;;;22.06;93.17;99554.78;4977472;28;20232;-85
2023/07/04 08:13:14;;;;;;;3.20;2.10;;;;;;;22.40;94.57;99599.69;4957302;28;20224;-85
2023/07/04 08:15:41;;;;;;;0.10;0.10;;;;;;;22.69;92.57;99590.06;4944636;28;20294;-84
2023/07/04 08:18:09;;;;;;;0.20;0.20;;;;;;;22.66;93.88;99558.75;4958535;28;20224;-86
2023/07/04 08:20:37;;;;;;;0.13;0.13;;;;;;;22.86;92.71;99546.03;4952666;28;20235;-84
2023/07/04 08:23:04;;;;;;;0.20;0.20;;;;;;;22.71;91.74;99490.25;4955176;28;20234;-83
2023/07/04 08:25:30;;;;;;;0.20;0.20;;;;;;;22.58;90.23;99447.81;4953117;28;20232;-84
2023/07/04 08:27:57;;;;;;;0.13;0.13;;;;;;;22.39;83.57;99323.19;4959469;28;20225;-84
2023/07/04 08:30:24;;;;;;;4.97;2.90;;;;;;;23.09;87.23;99451.22;4956307;28;20310;-84
2023/07/04 08:32:52;;;;;;;0.10;0.10;;;;;;;23.33;85.17;99427.34;4961510;28;20270;-83
2023/07/04 08:35:19;;;;;;;4.57;3.15;;;;;;;22.99;90.78;99423.06;4949796;28;20311;-82
2023/07/04 08:37:46;;;;;;;0.08;0.08;;;;;;;23.02;94.01;99438.19;4974443;28;20323;-82
2023/07/04 08:40:14;;;;;;;5.18;2.92;;;;;;;23.53;94.88;99496.34;4923724;28;20232;-83
2023/07/04 08:42:42;;;;;;;0.10;0.10;;;;;;;23.47;88.30;99396.88;4952227;28;20251;-83
2023/07/04 08:45:12;;;;;;;0.10;0.10;;;;;;;23.82;81.83;99354.25;4950513;28;20225;-85
2023/07/04 08:47:40;;;;;;;0.77;0.77;;;;;;;23.88;80.32;99303.44;4958771;28;20228;-84
2023/07/04 08:50:19;;;;;;;0.68;0.68;;;;;;;23.75;78.76;99218.81;4953082;28;20224;-84
2023/07/04 08:52:53;;;;;;;0.13;0.10;;;;;;;23.94;74.60;99172.56;4940893;28;20275;-83
2023/07/04 08:55:22;;;;;;;6.50;3.67;;;;;;;23.74;70.52;99067.75;4949591;28;20238;-84
2023/07/04 08:57:58;;;;;;;0.10;0.10;;;;;;;24.12;75.01;99165.97;4943929;28;20232;-84
2023/07/04 09:00:43;;;;;;;6.75;2.95;;;;;;;24.29;64.41;99029.78;4971699;28;20241;-85
2023/07/04 09:03:32;;;;;;;2.10;0.68;;;;;;;24.47;62.18;98979.00;4949873;28;20232;-84
2023/07/04 09:06:26;;;;;;;0.20;0.20;;;;;;;24.37;62.47;98940.09;4958699;28;20619;-86
2023/07/04 09:09:06;;;;;;;0.10;0.10;;;;;;;24.24;57.61;98808.56;4930150;28;20231;-84
2023/07/04 09:11:33;;;;;;;0.70;0.70;;;;;;;24.51;61.04;98892.19;4959813;28;20231;-84
2023/07/04 09:14:05;;;;;;;0.40;0.40;;;;;;;24.64;60.41;98864.25;4974228;28;20231;-84
2023/07/04 09:16:43;;;;;;;0.50;0.50;;;;;;;24.24;62.84;98810.41;4975749;28;20247;-85
2023/07/04 09:19:12;;;;;;;0.52;0.35;;;;;;;24.71;60.53;98836.69;4954459;28;20692;-84
2023/07/04 09:21:42;;;;;;;0.10;0.10;;;;;;;24.91;61.10;98851.44;4983390;28;20282;-84
2023/07/04 09:24:09;;;;;;;0.45;0.45;;;;;;;24.74;58.81;98755.38;4963152;28;20231;-87
2023/07/04 09:26:47;;;;;;;0.05;0.05;;;;;;;24.88;65.43;98852.53;4970528;28;20247;-84
2023/07/04 09:29:16;;;;;;;2.97;1.60;;;;;;;24.91;60.44;98748.69;4977797;28;20228;-82
2023/07/04 09:31:45;;;;;;;0.10;0.10;;;;;;;25.22;60.41;98790.50;4967814;28;20621;-82
2023/07/04 09:34:22;;;;;;;2.63;2.05;;;;;;;25.09;57.96;98697.75;4970929;28;20668;-84
2023/07/04 09:36:51;;;;;;;0.20;0.20;;;;;;;24.93;65.93;98762.09;4971899;28;20227;-84
2023/07/04 09:39:18;;;;;;;4.32;2.53;;;;;;;25.09;62.99;98741.03;4984200;28;20767;-82
2023/07/04 09:41:56;;;;;;;0.20;0.20;;;;;;;24.98;60.28;98663.44;4973748;28;20764;-85
2023/07/04 09:44:43;;;;;;;0.10;0.10;;;;;;;25.25;58.80;98643.31;4985156;28;20228;-84
2023/07/04 09:47:23;;;;;;;0.17;0.17;;;;;;;25.18;61.92;98659.16;4969094;28;20255;-89
2023/07/04 09:50:11;;;;;;;0.00;0.00;;;;;;;25.05;62.75;98642.19;4987624;28;20297;-84
2023/07/04 09:52:39;;;;;;;0.15;0.15;;;;;;;25.37;62.11;98670.25;4978017;28;20239;-83
2023/07/04 09:55:16;;;;;;;0.10;0.10;;;;;;;25.42;61.44;98645.53;4986441;28;20244;-82
2023/07/04 09:57:44;;;;;;;0.65;0.40;;;;;;;25.46;63.12;98655.13;4984814;28;20251;-82
2023/07/04 10:00:21;;;;;;;2.47;1.95;;;;;;;25.86;63.48;98717.75;4983841;28;20241;-83
2023/07/04 10:02:52;;;;;;;0.35;0.35;;;;;;;25.84;63.94;98693.53;4989155;28;20228;-85
2023/07/04 10:05:27;;;;;;;6.53;4.35;;;;;;;25.78;60.13;98601.09;4963026;28;20231;-79
2023/07/04 10:08:11;;;;;;;0.35;0.35;;;;;;;25.55;60.07;98547.97;4981445;28;20228;-81
2023/07/04 10:10:49;;;;;;;0.25;0.25;;;;;;;25.55;59.19;98521.75;4959864;28;20223;-79
2023/07/04 10:13:18;;;;;;;0.40;0.40;;;;;;;25.83;57.73;98525.75;4978955;28;20236;-80
2023/07/04 10:15:46;;;;;;;0.30;0.30;;;;;;;26.19;50.77;98428.84;4978077;28;20816;-81
2023/07/04 10:18:32;;;;;;;4.15;2.75;;;;;;;26.06;50.79;98355.94;4948835;28;20307;-79
2023/07/04 10:21:01;;;;;;;0.15;0.15;;;;;;;26.23;51.27;98376.13;4958009;28;20236;-81
2023/07/04 10:23:30;;;;;;;0.20;0.20;;;;;;;26.17;49.72;98301.66;4978394;28;20240;-80
2023/07/04 10:25:59;;;;;;;0.10;0.10;;;;;;;26.39;48.27;98282.53;4977078;28;20240;-79
2023/07/04 10:28:27;;;;;;;5.70;3.60;;;;;;;26.38;49.12;98288.09;4973304;28;20578;-85
2023/07/04 10:31:01;;;;;;;0.00;0.00;;;;;;;26.48;48.00;98253.72;4974559;28;20277;-85
2023/07/04 10:33:39;;;;;;;0.28;0.28;;;;;;;26.55;46.20;98186.28;4964502;28;20251;-84
2023/07/04 10:36:08;;;;;;;0.70;0.45;;;;;;;26.19;44.63;98053.16;4966150;28;20227;-84
2023/07/04 10:38:43;;;;;;;0.00;0.00;;;;;;;26.56;48.22;98185.28;4962333;28;20232;-84
2023/07/04 10:41:19;;;;;;;0.85;0.57;;;;;;;26.50;48.49;98147.91;4959738;28;20238;-85
2023/07/04 10:43:50;;;;;;;0.10;0.10;;;;;;;26.77;49.12;98202.25;4961254;28;20615;-85
2023/07/04 10:46:29;;;;;;;3.83;2.08;;;;;;;26.74;46.97;98113.94;4976624;28;20223;-84
2023/07/04 10:49:05;;;;;;;0.50;0.50;;;;;;;26.51;45.40;98025.78;4973614;28;20242;-84
2023/07/04 10:51:35;;;;;;;0.20;0.20;;;;;;;26.64;46.42;98064.28;4969685;28;20240;-85
2023/07/04 10:54:02;;;;;;;0.45;0.20;;;;;;;26.54;48.44;98078.84;4966680;28;20227;-83
2023/07/04 10:56:34;;;;;;;0.10;0.10;;;;;;;26.82;49.18;98151.19;4960643;28;20236;-85
2023/07/04 10:59:15;;;;;;;0.30;0.30;;;;;;;26.78;50.48;98149.75;4969349;28;20220;-84
2023/07/04 11:01:50;;;;;;;2.92;0.50;;;;;;;26.78;47.50;98073.81;4943847;28;20231;-84
2023/07/04 11:04:27;;;;;;;6.45;3.88;;;;;;;27.08;48.25;98137.91;4958618;28;20250;-83
2023/07/04 11:07:03;;;;;;;0.00;0.00;;;;;;;26.62;50.62;98096.13;4964940;28;20298;-84
2023/07/04 11:09:36;;;;;;;0.00;0.00;;;;;;;26.43;51.98;98102.41;4958867;28;20231;-84
2023/07/04 11:12:11;;;;;;;0.10;0.10;;;;;;;26.62;50.31;98106.94;4967410;28;20286;-85
2023/07/04 11:14:40;;;;;;;0.00;0.00;;;;;;;26.82;48.71;98085.25;4962045;28;20251;-87
2023/07/04 11:17:11;;;;;;;0.00;0.00;;;;;;;27.15;48.64;98124.59;4964602;28;20739;-85
2023/07/04 11:19:56;;;;;;;0.00;0.00;;;;;;;27.60;51.35;98239.69;4965246;28;20243;-83
2023/07/04 11:22:47;;;;;;;5.10;3.08;;;;;;;27.30;51.48;98177.41;4977105;28;20223;-81
2023/07/04 11:25:54;;;;;;;0.10;0.10;;;;;;;27.03;50.92;98113.06;4961426;28;20247;-79
2023/07/04 11:28:26;;;;;;;0.52;0.35;;;;;;;26.60;51.38;98056.59;4955057;28;20228;-84
2023/07/04 11:31:09;;;;;;;0.15;0.15;;;;;;;26.98;51.25;98129.78;4976241;28;20232;-84
2023/07/04 11:33:40;;;;;;;0.30;0.30;;;;;;;26.57;52.09;98075.84;4975869;28;20250;-83
2023/07/04 11:36:18;;;;;;;0.10;0.10;;;;;;;26.74;52.39;98123.94;4981233;28;20232;-82
2023/07/04 11:38:51;;;;;;;0.28;0.28;;;;;;;26.60;53.34;98113.50;4959378;28;20230;-84